Lingle, Wyoming
Current Conditions -  °F | °C
As of 10:53 PM on Thursday 30 Oct 2014 (Local Time) from KTOR Reporting Station
Clear Clear  
Wind Chill: 28°   Ceiling: Unl
Heat Index: 35°   Visibility: 10mi
Dew Point: 30°   Wind: 9mph
Humidity: 82%   Direction: 80°E
Pressure: 30.41"   Gusts: NA
Location:  42.14°N, 104.35°W
Report Text: KTOR 310453Z AUTO 08008KT 10SM CLR 02/M01 A3041 RMK AO2 SLP299 T00171011
Loading
Personal Weather Stations






























Interactive Weather Map New forecast layout! Learn more

10-Day Weather Forecast

Advertisements
Track Severe Weather on mobile